Time;durP1;ratioP1;P1;durP2;ratioP2;P2;SDS_P1;SDS_P2;PMS_P1;PMS_P2;Temp;Humidity;BMP_temperature;BMP_pressure;BME280_temperature;BME280_humidity;BME280_pressure;Samples;Min_cycle;Max_cycle;Signal;HPM_P1;HPM_P2
2020/12/09 00:01:12;;;;;;;16.65;13.60;;;7.60;99.90;;;;;;5057548;28;20171;-82
2020/12/09 00:03:38;;;;;;;14.90;12.95;;;7.60;99.90;;;;;;5058479;28;20169;-82
2020/12/09 00:06:05;;;;;;;18.98;14.32;;;7.70;99.90;;;;;;5057195;28;20291;-82
2020/12/09 00:08:31;;;;;;;16.33;13.73;;;7.60;99.90;;;;;;5065576;28;20236;-82
2020/12/09 00:10:57;;;;;;;19.17;14.63;;;7.60;99.90;;;;;;5037735;28;20603;-82
2020/12/09 00:13:23;;;;;;;16.20;12.70;;;7.60;99.90;;;;;;5038786;28;20514;-82
2020/12/09 00:15:49;;;;;;;15.95;13.48;;;7.60;99.90;;;;;;5056138;28;20216;-82
2020/12/09 00:18:15;;;;;;;17.33;14.27;;;7.60;99.90;;;;;;5052694;28;20231;-83
2020/12/09 00:20:41;;;;;;;15.20;12.13;;;7.60;99.90;;;;;;5051977;28;20721;-82
2020/12/09 00:23:06;;;;;;;14.60;12.87;;;7.60;99.90;;;;;;5034219;28;20172;-82
2020/12/09 00:25:32;;;;;;;20.63;14.87;;;7.60;99.90;;;;;;5033363;28;20667;-82
2020/12/09 00:27:58;;;;;;;19.20;15.03;;;7.60;99.90;;;;;;5033566;28;20177;-82
2020/12/09 00:30:24;;;;;;;17.60;14.00;;;7.60;99.90;;;;;;5051363;28;20571;-82
2020/12/09 00:32:50;;;;;;;18.60;15.10;;;7.60;99.90;;;;;;5051587;28;20663;-82
2020/12/09 00:35:16;;;;;;;17.23;13.00;;;7.60;99.90;;;;;;5056159;28;20244;-82
2020/12/09 00:37:41;;;;;;;20.37;15.33;;;7.60;99.90;;;;;;5033354;28;20275;-82
2020/12/09 00:40:08;;;;;;;15.87;13.37;;;7.60;99.90;;;;;;5051270;28;20570;-83
2020/12/09 00:42:34;;;;;;;15.85;13.10;;;7.60;99.90;;;;;;5051390;28;20568;-83
2020/12/09 00:45:00;;;;;;;13.40;12.07;;;7.60;99.90;;;;;;5033688;28;20160;-83
2020/12/09 00:47:28;;;;;;;15.13;12.48;;;7.60;99.90;;;;;;5050804;28;20188;-83
2020/12/09 00:50:39;;;;;;;15.70;12.93;;;7.60;99.90;;;;;;5032979;28;20161;-83
2020/12/09 00:52:48;;;;;;;16.10;14.35;;;7.50;99.90;;;;;;5009951;28;20231;-83
2020/12/09 00:55:17;;;;;;;17.27;14.85;;;7.60;99.90;;;;;;5033124;28;20169;-83
2020/12/09 00:57:48;;;;;;;17.65;14.52;;;7.60;99.90;;;;;;5032798;28;20236;-83
2020/12/09 01:00:15;;;;;;;16.65;13.60;;;7.60;99.90;;;;;;5033134;28;20223;-83
2020/12/09 01:02:44;;;;;;;15.07;13.48;;;7.60;99.90;;;;;;5018348;28;20200;-82
2020/12/09 01:05:12;;;;;;;16.40;14.05;;;7.60;99.90;;;;;;5036558;28;20290;-82
2020/12/09 01:07:38;;;;;;;16.90;12.98;;;7.60;99.90;;;;;;5052481;28;20267;-83
2020/12/09 01:10:08;;;;;;;15.98;14.27;;;7.60;99.90;;;;;;5070595;28;20267;-82
2020/12/09 01:12:34;;;;;;;16.25;13.85;;;7.50;99.90;;;;;;5058201;28;20399;-81
2020/12/09 01:15:00;;;;;;;17.30;13.10;;;7.60;99.90;;;;;;5052806;28;20646;-81
2020/12/09 01:17:27;;;;;;;16.63;13.50;;;7.50;99.90;;;;;;5052241;28;20346;-81
2020/12/09 01:19:54;;;;;;;18.25;15.10;;;7.60;99.90;;;;;;5070011;28;20173;-81
2020/12/09 01:22:19;;;;;;;16.07;14.30;;;7.50;99.90;;;;;;5069713;28;20165;-82
2020/12/09 01:24:45;;;;;;;18.93;13.60;;;7.50;99.90;;;;;;5070715;28;20202;-81
2020/12/09 01:27:11;;;;;;;18.30;13.90;;;7.50;99.90;;;;;;5052562;28;20945;-81
2020/12/09 01:29:37;;;;;;;18.57;14.47;;;7.50;99.90;;;;;;5052407;28;20165;-81
2020/12/09 01:32:05;;;;;;;15.98;14.27;;;7.50;99.90;;;;;;5052786;28;20168;-81
2020/12/09 01:34:31;;;;;;;19.67;15.32;;;7.50;99.90;;;;;;5052905;28;20169;-81
2020/12/09 01:37:00;;;;;;;15.20;13.20;;;7.50;99.90;;;;;;5035645;28;20208;-81
2020/12/09 01:39:28;;;;;;;15.13;12.25;;;7.50;99.90;;;;;;5069889;28;20569;-81
2020/12/09 01:41:54;;;;;;;18.10;15.40;;;7.40;99.90;;;;;;5070260;28;20169;-81
2020/12/09 01:44:19;;;;;;;16.57;14.17;;;7.40;99.90;;;;;;5070303;28;20584;-81
2020/12/09 01:46:47;;;;;;;20.00;15.68;;;7.40;99.90;;;;;;5070101;28;20639;-81
2020/12/09 01:49:13;;;;;;;18.08;15.40;;;7.40;99.90;;;;;;5071348;28;20171;-80
2020/12/09 01:51:39;;;;;;;19.40;15.23;;;7.40;99.90;;;;;;5055890;28;20168;-81
2020/12/09 01:54:05;;;;;;;21.35;16.42;;;7.30;99.90;;;;;;5052394;28;20566;-81
2020/12/09 01:56:31;;;;;;;16.37;14.57;;;7.30;99.90;;;;;;5052135;28;20592;-81
2020/12/09 01:58:57;;;;;;;21.50;15.10;;;7.30;99.90;;;;;;5069605;28;20168;-81
2020/12/09 02:01:23;;;;;;;16.90;15.20;;;7.30;99.90;;;;;;5069783;28;20604;-81
2020/12/09 02:03:50;;;;;;;19.08;15.35;;;7.30;99.90;;;;;;5052171;28;21170;-81
2020/12/09 02:06:17;;;;;;;19.27;14.55;;;7.30;99.90;;;;;;5052144;28;20224;-81
2020/12/09 02:08:45;;;;;;;17.00;14.88;;;7.30;99.90;;;;;;5051939;28;20168;-82
2020/12/09 02:11:11;;;;;;;15.93;14.10;;;7.20;99.90;;;;;;5069957;28;20187;-82
2020/12/09 02:13:42;;;;;;;17.25;15.05;;;7.20;99.90;;;;;;5052281;28;20168;-81
2020/12/09 02:16:08;;;;;;;18.73;15.23;;;7.20;99.90;;;;;;5035105;28;20193;-81
2020/12/09 02:18:34;;;;;;;18.83;15.35;;;7.20;99.90;;;;;;5069368;28;20195;-81
2020/12/09 02:21:00;;;;;;;17.27;14.97;;;7.20;99.90;;;;;;5035442;28;20160;-82
2020/12/09 02:23:27;;;;;;;17.67;14.65;;;7.20;99.90;;;;;;5070346;28;20597;-81
2020/12/09 02:25:53;;;;;;;16.57;14.50;;;7.20;99.90;;;;;;5052061;28;20565;-81
2020/12/09 02:28:19;;;;;;;18.80;15.30;;;7.20;99.90;;;;;;5055981;28;20583;-81
2020/12/09 02:30:44;;;;;;;19.03;13.97;;;7.10;99.90;;;;;;5069195;28;20554;-81
2020/12/09 02:33:10;;;;;;;16.37;13.97;;;7.20;99.90;;;;;;5072200;28;20943;-81
2020/12/09 02:35:36;;;;;;;16.77;14.90;;;7.20;99.90;;;;;;5073602;28;20570;-81
2020/12/09 02:38:02;;;;;;;18.03;14.43;;;7.20;99.90;;;;;;5073332;28;20188;-81
2020/12/09 02:40:31;;;;;;;20.33;14.90;;;7.20;99.90;;;;;;5055544;28;20256;-81
2020/12/09 02:42:57;;;;;;;15.30;13.35;;;7.20;99.90;;;;;;5055763;28;20251;-80
2020/12/09 02:45:25;;;;;;;15.87;14.23;;;7.20;99.90;;;;;;5073367;28;20644;-81
2020/12/09 02:47:50;;;;;;;18.48;14.35;;;7.10;99.90;;;;;;5072845;28;20621;-80
2020/12/09 02:50:16;;;;;;;19.00;15.30;;;7.10;99.90;;;;;;5073134;28;20207;-81
2020/12/09 02:52:42;;;;;;;18.57;15.47;;;7.10;99.90;;;;;;5055168;28;20583;-81
2020/12/09 02:55:08;;;;;;;17.70;14.40;;;7.10;99.90;;;;;;5073244;28;20574;-81
2020/12/09 02:57:34;;;;;;;15.27;13.67;;;7.10;99.90;;;;;;5072649;28;20216;-81
2020/12/09 03:00:00;;;;;;;16.70;14.23;;;7.10;99.90;;;;;;5072934;28;20572;-81
2020/12/09 03:02:25;;;;;;;16.70;14.50;;;7.10;99.90;;;;;;5072948;28;20295;-81
2020/12/09 03:04:51;;;;;;;17.63;14.50;;;7.10;99.90;;;;;;5060700;28;20678;-81
2020/12/09 03:07:17;;;;;;;18.90;15.60;;;7.10;99.90;;;;;;5037976;28;20602;-81
2020/12/09 03:09:43;;;;;;;16.03;13.83;;;7.10;99.90;;;;;;5072823;28;21095;-81
2020/12/09 03:12:09;;;;;;;17.93;14.90;;;7.10;99.90;;;;;;5038536;28;20255;-81
2020/12/09 03:14:35;;;;;;;20.13;15.27;;;7.00;99.90;;;;;;5038246;28;20581;-81
2020/12/09 03:17:01;;;;;;;19.05;16.38;;;7.00;99.90;;;;;;5038203;28;20740;-81
2020/12/09 03:19:28;;;;;;;18.75;14.75;;;7.00;99.90;;;;;;5072471;28;20169;-81
2020/12/09 03:21:54;;;;;;;15.70;12.97;;;7.00;99.90;;;;;;5072632;28;20310;-81
2020/12/09 03:24:20;;;;;;;17.90;14.93;;;7.00;99.90;;;;;;5072814;28;20195;-81
2020/12/09 03:26:46;;;;;;;19.20;15.90;;;7.00;99.90;;;;;;5072798;28;20670;-82
2020/12/09 03:29:11;;;;;;;16.60;14.60;;;7.00;99.90;;;;;;5072062;28;20164;-82
2020/12/09 03:31:37;;;;;;;18.60;15.30;;;7.00;99.90;;;;;;5038075;28;20579;-82
2020/12/09 03:34:03;;;;;;;17.13;15.33;;;7.00;99.90;;;;;;5072770;28;20570;-82
2020/12/09 03:36:29;;;;;;;19.23;16.20;;;7.00;99.90;;;;;;5072538;28;20698;-82
2020/12/09 03:38:55;;;;;;;17.70;14.27;;;7.00;99.90;;;;;;5072027;28;20622;-82
2020/12/09 03:41:20;;;;;;;18.17;15.70;;;7.00;99.90;;;;;;5077222;28;20571;-82
2020/12/09 03:43:46;;;;;;;20.87;15.33;;;7.00;99.90;;;;;;5071732;28;20172;-82
2020/12/09 03:46:12;;;;;;;18.10;16.10;;;7.00;99.90;;;;;;5072392;28;20602;-82
2020/12/09 03:48:38;;;;;;;18.27;13.60;;;7.00;99.90;;;;;;5054200;28;20609;-81
2020/12/09 03:51:04;;;;;;;19.03;14.43;;;7.00;99.90;;;;;;5071993;28;20571;-83
2020/12/09 03:53:32;;;;;;;16.97;14.20;;;7.00;99.90;;;;;;5054353;28;21119;-82
2020/12/09 03:55:59;;;;;;;20.60;16.75;;;7.00;99.90;;;;;;5072159;28;20613;-82
2020/12/09 03:58:25;;;;;;;16.92;13.93;;;6.90;99.90;;;;;;5071475;28;20196;-82
2020/12/09 04:00:50;;;;;;;20.30;15.33;;;6.90;99.90;;;;;;5071959;28;20267;-81
2020/12/09 04:03:16;;;;;;;22.10;17.70;;;6.90;99.90;;;;;;5072056;28;21356;-82
2020/12/09 04:05:47;;;;;;;19.35;16.08;;;6.90;99.90;;;;;;5071877;28;20573;-82
2020/12/09 04:08:13;;;;;;;19.93;15.67;;;6.90;99.90;;;;;;5053975;28;20180;-81
2020/12/09 04:10:38;;;;;;;22.00;16.70;;;6.90;99.90;;;;;;5072063;28;20635;-81
2020/12/09 04:13:10;;;;;;;19.98;16.02;;;6.90;99.90;;;;;;5072120;28;20267;-81
2020/12/09 04:15:36;;;;;;;20.23;18.15;;;6.90;99.90;;;;;;5072268;28;20649;-81
2020/12/09 04:18:02;;;;;;;20.00;17.20;;;6.90;99.90;;;;;;5037773;28;20226;-81
2020/12/09 04:20:28;;;;;;;23.50;18.40;;;6.90;99.90;;;;;;5073745;28;20168;-81
2020/12/09 04:22:54;;;;;;;21.03;17.40;;;6.90;99.90;;;;;;5053779;28;20611;-81
2020/12/09 04:25:19;;;;;;;18.70;16.10;;;6.90;99.90;;;;;;5053674;28;20716;-81
2020/12/09 04:27:45;;;;;;;26.60;20.37;;;6.80;99.90;;;;;;5072966;28;20283;-81
2020/12/09 04:30:11;;;;;;;23.80;18.50;;;6.80;99.90;;;;;;5053444;28;20175;-81
2020/12/09 04:32:37;;;;;;;26.60;18.52;;;6.80;99.90;;;;;;5071598;28;20195;-81
2020/12/09 04:35:04;;;;;;;24.92;18.65;;;6.70;99.90;;;;;;5071767;28;20541;-81
2020/12/09 04:37:30;;;;;;;23.67;18.05;;;6.70;99.90;;;;;;5071171;28;20655;-81
2020/12/09 04:39:57;;;;;;;22.17;18.27;;;6.70;99.90;;;;;;5036983;28;20200;-82
2020/12/09 04:42:24;;;;;;;29.65;19.17;;;6.60;99.90;;;;;;5053004;28;20157;-82
2020/12/09 04:44:51;;;;;;;24.95;19.20;;;6.60;99.90;;;;;;5071403;28;20261;-81
2020/12/09 04:47:26;;;;;;;24.80;19.92;;;6.70;99.90;;;;;;5066718;28;20196;-82
2020/12/09 04:50:04;;;;;;;29.23;20.73;;;6.60;99.90;;;;;;5068823;28;20505;-81
2020/12/09 04:52:39;;;;;;;23.83;18.50;;;6.60;99.90;;;;;;5070298;28;20604;-81
2020/12/09 04:55:08;;;;;;;24.85;19.40;;;6.60;99.90;;;;;;5052982;28;20171;-81
2020/12/09 04:57:38;;;;;;;27.38;19.88;;;6.60;99.90;;;;;;5057815;28;20192;-82
2020/12/09 05:00:10;;;;;;;27.52;20.23;;;6.60;99.90;;;;;;5052434;28;20173;-81
2020/12/09 05:02:46;;;;;;;27.85;18.95;;;6.50;99.90;;;;;;5069175;28;20176;-81
2020/12/09 05:05:20;;;;;;;26.42;19.77;;;6.50;99.90;;;;;;5068751;28;20218;-81
2020/12/09 05:07:47;;;;;;;26.38;18.95;;;6.50;99.90;;;;;;5050409;28;20203;-81
2020/12/09 05:10:15;;;;;;;23.70;17.63;;;6.50;99.90;;;;;;5033989;28;20184;-82
2020/12/09 05:12:53;;;;;;;24.13;19.38;;;6.50;99.90;;;;;;5051178;28;20190;-82
2020/12/09 05:15:21;;;;;;;29.67;20.58;;;6.50;99.90;;;;;;5069350;28;20157;-82
2020/12/09 05:18:06;;;;;;;24.35;18.77;;;6.50;99.90;;;;;;5070126;28;20778;-82
2020/12/09 05:20:42;;;;;;;25.02;19.02;;;6.50;99.90;;;;;;5052627;28;20263;-82
2020/12/09 05:23:10;;;;;;;34.28;22.80;;;6.50;99.90;;;;;;5052684;28;20163;-82
2020/12/09 05:25:38;;;;;;;23.85;19.10;;;6.50;99.90;;;;;;5053028;28;20290;-82
2020/12/09 05:28:05;;;;;;;28.90;20.73;;;6.50;99.90;;;;;;5052597;28;20649;-82
2020/12/09 05:30:39;;;;;;;25.08;19.15;;;6.50;99.90;;;;;;5070515;28;20254;-82
2020/12/09 05:33:07;;;;;;;24.55;18.58;;;6.50;99.90;;;;;;5075923;28;20247;-82
2020/12/09 05:35:57;;;;;;;22.65;17.83;;;6.50;99.90;;;;;;5055258;28;20310;-82
2020/12/09 05:38:23;;;;;;;26.38;20.48;;;6.50;99.90;;;;;;5070045;28;20296;-82
2020/12/09 05:40:49;;;;;;;30.25;19.90;;;6.50;99.90;;;;;;5052547;28;20168;-82
2020/12/09 05:43:17;;;;;;;27.33;20.50;;;6.50;99.90;;;;;;5070456;28;20165;-82
2020/12/09 05:45:43;;;;;;;20.98;17.90;;;6.50;99.90;;;;;;5070463;28;20168;-82
2020/12/09 05:48:18;;;;;;;28.25;20.42;;;6.50;99.90;;;;;;5052273;28;20161;-82
2020/12/09 05:50:58;;;;;;;24.90;19.52;;;6.50;99.90;;;;;;5052300;28;20165;-82
2020/12/09 05:53:26;;;;;;;25.10;18.90;;;6.50;99.90;;;;;;5070363;28;20565;-82
2020/12/09 05:55:54;;;;;;;26.33;19.15;;;6.50;99.90;;;;;;5070423;28;20216;-82
2020/12/09 05:58:29;;;;;;;24.85;19.88;;;6.50;99.90;;;;;;5051898;28;20668;-81
2020/12/09 06:01:21;;;;;;;23.67;20.08;;;6.50;99.90;;;;;;5052007;28;20179;-81
2020/12/09 06:03:52;;;;;;;24.80;19.15;;;6.50;99.90;;;;;;5070304;28;20191;-81
2020/12/09 06:06:24;;;;;;;28.52;20.02;;;6.50;99.90;;;;;;5070565;28;20192;-81
2020/12/09 06:08:51;;;;;;;27.23;21.05;;;6.50;99.90;;;;;;5055774;28;20175;-81
2020/12/09 06:11:20;;;;;;;23.88;19.90;;;6.50;99.90;;;;;;5027966;28;20184;-80
2020/12/09 06:13:47;;;;;;;26.77;19.90;;;6.50;99.90;;;;;;5056500;28;20167;-81
2020/12/09 06:16:13;;;;;;;24.10;18.15;;;6.50;99.90;;;;;;5056472;28;20716;-81
2020/12/09 09:20:50;;;;;;;;;;;;;;;;;;;;;
2020/12/09 09:28:52;;;;;;;;;;;;;;;;;;;;;
2020/12/09 10:07:54;;;;;;;;;;;;;;;;;;;;;
2020/12/09 10:36:41;;;;;;;20.77;17.20;;;8.50;99.90;;;;;;3124827;23;20228;-78
2020/12/09 10:41:18;;;;;;;;;;;;;;;;;;;;;
2020/12/09 10:59:39;;;;;;;24.13;18.52;;;8.50;99.90;;;;;;1269715;26;21049;-77
2020/12/09 11:02:32;;;;;;;23.65;18.30;;;8.50;99.90;;;;;;5025425;28;20649;-79
2020/12/09 11:05:16;;;;;;;24.80;18.10;;;8.50;99.90;;;;;;5020304;28;20207;-78
2020/12/09 11:07:57;;;;;;;20.65;17.95;;;8.60;99.90;;;;;;5004367;28;20191;-77
2020/12/09 11:10:30;;;;;;;24.95;21.10;;;8.70;99.90;;;;;;5007126;28;20231;-78
2020/12/09 11:12:57;;;;;;;24.80;20.75;;;8.70;99.90;;;;;;5034877;28;20218;-77
2020/12/09 11:15:23;;;;;;;31.35;24.92;;;8.80;99.90;;;;;;5048454;28;20184;-77
2020/12/09 11:18:07;;;;;;;29.98;24.73;;;8.70;99.90;;;;;;5012926;28;20251;-77
2020/12/09 11:21:07;;;;;;;27.42;24.27;;;8.60;99.90;;;;;;5033684;28;20200;-77
2020/12/09 11:36:25;;;;;;;;;;;;;;;;;;;;;
2020/12/09 11:40:25;;;;;;;31.15;24.30;;;8.40;99.90;;;;;;4877301;29;20206;-78
2020/12/09 11:44:01;;;;;;;31.88;27.83;;;8.60;99.90;;;;;;4872811;29;20697;-79
2020/12/09 11:47:59;;;;;;;;;;;;;;;;;;;;;
2020/12/09 12:04:28;;;;;;;24.00;18.50;;;8.60;99.90;;;;;;4856466;29;20684;-79
2020/12/09 12:20:15;;;;;;;16.85;14.60;;;8.40;99.90;;;;;;4968881;23;20615;-80
2020/12/09 12:22:41;;;;;;;18.37;14.60;;;8.40;99.90;;;;;;5036594;28;20169;-80
2020/12/09 12:25:07;;;;;;;18.95;16.45;;;8.30;99.90;;;;;;5030247;28;20495;-79
2020/12/09 12:27:32;;;;;;;18.57;15.37;;;8.30;99.90;;;;;;5029685;28;20177;-80
2020/12/09 12:29:58;;;;;;;17.20;15.30;;;8.30;99.90;;;;;;5031247;28;20240;-80
2020/12/09 12:32:24;;;;;;;20.90;16.33;;;8.30;99.90;;;;;;5029757;28;20618;-80
2020/12/09 12:34:50;;;;;;;17.97;15.60;;;8.30;99.90;;;;;;5031188;28;20166;-80
2020/12/09 12:37:16;;;;;;;20.60;15.47;;;8.30;99.90;;;;;;5035158;28;20722;-79
2020/12/09 12:39:45;;;;;;;21.13;16.85;;;8.20;99.90;;;;;;5049961;28;20235;-80
2020/12/09 12:42:11;;;;;;;20.53;16.87;;;8.20;99.90;;;;;;5050857;28;20176;-80
2020/12/09 12:44:36;;;;;;;18.90;16.07;;;8.10;99.90;;;;;;5051074;28;20292;-79
2020/12/09 12:47:02;;;;;;;21.07;17.90;;;8.10;99.90;;;;;;5051025;28;20583;-80
2020/12/09 12:49:28;;;;;;;24.13;19.53;;;7.90;99.90;;;;;;5048948;28;20197;-80
2020/12/09 12:51:57;;;;;;;24.05;19.35;;;7.80;99.90;;;;;;5049235;28;20179;-80
2020/12/09 12:54:23;;;;;;;21.75;16.08;;;7.60;99.90;;;;;;5034589;28;20169;-80
2020/12/09 12:56:53;;;;;;;28.30;21.03;;;7.60;99.90;;;;;;5029828;28;20236;-79
2020/12/09 12:59:19;;;;;;;22.08;18.17;;;7.60;99.90;;;;;;5035469;28;20225;-80
2020/12/09 13:01:45;;;;;;;24.37;19.30;;;7.50;99.90;;;;;;5029287;28;20614;-80
2020/12/09 13:04:11;;;;;;;30.30;22.57;;;7.50;99.90;;;;;;5030472;28;20249;-80
2020/12/09 13:06:36;;;;;;;27.03;20.67;;;7.40;99.90;;;;;;5030714;28;20624;-80
2020/12/09 13:09:03;;;;;;;26.47;19.63;;;7.30;99.90;;;;;;5030278;28;20170;-80
2020/12/09 13:11:28;;;;;;;26.92;23.65;;;7.30;99.90;;;;;;5029674;28;20737;-80
2020/12/09 13:13:56;;;;;;;24.90;20.00;;;7.10;99.90;;;;;;5030703;28;20615;-80
2020/12/09 13:16:23;;;;;;;25.45;19.85;;;7.20;99.90;;;;;;5030557;28;20173;-80
2020/12/09 13:21:44;;;;;;;24.70;18.65;;;7.20;99.90;;;;;;5340127;23;20252;-80
2020/12/09 13:24:10;;;;;;;20.90;17.40;;;7.20;99.90;;;;;;5052884;28;20195;-80
2020/12/09 13:26:39;;;;;;;23.70;19.58;;;7.20;99.90;;;;;;5070830;28;20199;-79
2020/12/09 13:29:05;;;;;;;24.10;19.65;;;7.20;99.90;;;;;;5071506;28;20176;-80
2020/12/09 13:31:34;;;;;;;26.33;18.57;;;7.20;99.90;;;;;;5053881;28;20710;-79
2020/12/09 13:34:00;;;;;;;25.55;20.40;;;7.10;99.90;;;;;;5036014;28;20195;-80
2020/12/09 13:36:25;;;;;;;22.37;17.63;;;7.10;99.90;;;;;;5055812;28;20168;-80
2020/12/09 13:38:53;;;;;;;22.63;17.13;;;7.10;99.90;;;;;;5052306;28;20234;-80
2020/12/09 13:41:19;;;;;;;24.40;19.13;;;7.10;99.90;;;;;;5070353;28;20600;-80
2020/12/09 13:43:44;;;;;;;24.03;18.40;;;7.10;99.90;;;;;;5052490;28;20581;-80
2020/12/09 13:46:10;;;;;;;22.07;15.97;;;7.00;99.90;;;;;;5052441;28;20213;-79
2020/12/09 13:48:36;;;;;;;24.23;17.53;;;7.10;99.90;;;;;;5051345;28;20168;-80
2020/12/09 13:51:02;;;;;;;28.23;21.97;;;7.10;99.90;;;;;;5052134;28;20191;-80
2020/12/09 13:53:28;;;;;;;25.65;19.20;;;7.00;99.90;;;;;;5035325;28;20176;-80
2020/12/09 13:55:54;;;;;;;24.90;20.03;;;7.00;99.90;;;;;;5070164;28;20179;-80
2020/12/09 13:58:19;;;;;;;23.50;19.50;;;7.00;99.90;;;;;;5066731;28;20196;-80
2020/12/09 14:00:45;;;;;;;22.53;18.03;;;7.00;99.90;;;;;;4998777;28;20642;-80
2020/12/09 14:03:11;;;;;;;26.90;20.33;;;7.00;99.90;;;;;;5049617;28;20595;-80
2020/12/09 14:05:37;;;;;;;23.38;19.45;;;7.00;99.90;;;;;;5031618;28;21581;-80
2020/12/09 14:08:04;;;;;;;23.50;17.85;;;7.00;99.90;;;;;;5049222;28;20188;-80
2020/12/09 14:10:30;;;;;;;26.47;20.90;;;7.00;99.90;;;;;;5031609;28;20534;-80
2020/12/09 14:12:56;;;;;;;22.03;16.57;;;7.00;99.90;;;;;;5015834;28;20176;-80
2020/12/09 14:15:21;;;;;;;24.27;20.60;;;7.00;99.90;;;;;;5019065;28;20701;-80
2020/12/09 14:17:47;;;;;;;20.90;17.27;;;6.90;99.90;;;;;;5014847;28;20973;-80
2020/12/09 14:20:13;;;;;;;25.40;18.10;;;6.90;99.90;;;;;;5031615;28;20603;-80
2020/12/09 14:22:39;;;;;;;18.40;15.90;;;7.00;99.90;;;;;;5032268;28;20578;-81
2020/12/09 14:25:05;;;;;;;21.30;16.40;;;7.00;99.90;;;;;;5050250;28;20173;-80
2020/12/09 14:27:31;;;;;;;21.03;15.90;;;7.10;99.90;;;;;;5015475;28;20181;-80
2020/12/09 14:29:57;;;;;;;25.03;16.30;;;7.00;99.90;;;;;;5054139;28;21000;-80
2020/12/09 14:32:22;;;;;;;22.87;16.13;;;7.00;99.90;;;;;;5035567;28;21131;-80
2020/12/09 14:34:48;;;;;;;22.13;15.90;;;7.00;99.90;;;;;;5053481;28;21237;-80
2020/12/09 14:37:14;;;;;;;22.15;17.15;;;7.00;99.90;;;;;;5035017;28;20594;-80
2020/12/09 14:39:40;;;;;;;20.50;16.60;;;6.90;99.90;;;;;;5053533;28;20654;-80
2020/12/09 14:42:06;;;;;;;21.43;15.67;;;6.90;99.90;;;;;;5053448;28;20575;-81
2020/12/09 14:44:32;;;;;;;19.53;16.57;;;6.90;99.90;;;;;;5035478;28;20666;-81
2020/12/09 14:46:57;;;;;;;22.00;17.00;;;6.90;99.90;;;;;;5053036;28;20165;-81
2020/12/09 14:49:23;;;;;;;22.20;17.00;;;6.90;99.90;;;;;;5018087;28;20973;-81
2020/12/09 14:51:50;;;;;;;22.60;16.10;;;6.90;99.90;;;;;;5058422;28;20173;-81
2020/12/09 14:54:16;;;;;;;25.60;14.82;;;6.80;99.90;;;;;;5035181;28;20180;-81
2020/12/09 14:56:47;;;;;;;20.47;14.70;;;6.80;99.90;;;;;;5053069;28;20176;-80
2020/12/09 14:59:13;;;;;;;26.55;18.83;;;6.80;99.90;;;;;;5034115;28;20682;-81
2020/12/09 15:01:39;;;;;;;18.45;15.65;;;6.80;99.90;;;;;;5052787;28;20211;-81
2020/12/09 15:04:05;;;;;;;19.57;15.40;;;6.70;99.90;;;;;;5052878;28;20173;-81
2020/12/09 15:06:30;;;;;;;18.57;14.63;;;6.70;99.90;;;;;;5052970;28;20240;-81
2020/12/09 15:08:56;;;;;;;19.03;15.40;;;6.70;99.90;;;;;;5034211;28;20605;-81
2020/12/09 15:11:24;;;;;;;21.40;15.63;;;6.60;99.90;;;;;;5052452;28;20930;-81
2020/12/09 15:13:51;;;;;;;20.92;15.00;;;6.60;99.90;;;;;;5034723;28;20227;-81
2020/12/09 15:16:18;;;;;;;25.75;19.33;;;6.60;99.90;;;;;;5052631;28;20542;-81
2020/12/09 15:18:45;;;;;;;20.80;15.60;;;6.60;99.90;;;;;;5052529;28;20200;-81
2020/12/09 15:21:12;;;;;;;20.50;16.00;;;6.60;99.90;;;;;;5034283;28;20208;-81
2020/12/09 15:23:42;;;;;;;21.45;15.13;;;6.60;99.90;;;;;;5034950;28;20526;-81
2020/12/09 15:26:08;;;;;;;22.42;17.13;;;6.50;99.90;;;;;;5052968;28;20180;-83
2020/12/09 15:29:31;;;;;;;23.88;19.33;;;6.50;99.90;;;;;;5042215;28;20881;-83
2020/12/09 15:31:53;;;;;;;26.35;18.52;;;6.50;99.90;;;;;;5034102;28;20557;-82
2020/12/09 15:34:19;;;;;;;22.60;16.42;;;6.40;99.90;;;;;;5034706;28;20176;-82
2020/12/09 15:36:47;;;;;;;25.13;17.80;;;6.40;99.90;;;;;;5034945;28;20173;-82
2020/12/09 15:39:13;;;;;;;19.52;14.65;;;6.40;99.90;;;;;;5033448;28;20660;-83
2020/12/09 15:41:46;;;;;;;20.97;15.73;;;6.40;99.90;;;;;;5017321;28;20698;-83
2020/12/09 15:44:14;;;;;;;18.63;13.45;;;6.40;99.90;;;;;;5000841;28;20949;-82
2020/12/09 15:46:40;;;;;;;20.40;15.85;;;6.30;99.90;;;;;;5034383;28;20185;-82
2020/12/09 15:49:06;;;;;;;25.30;16.90;;;6.30;99.90;;;;;;5033942;28;20176;-83
2020/12/09 15:51:32;;;;;;;23.07;17.27;;;6.30;99.90;;;;;;5052520;28;20538;-83
2020/12/09 15:53:58;;;;;;;18.10;14.47;;;6.30;99.90;;;;;;5052386;28;20654;-83
2020/12/09 15:56:23;;;;;;;21.70;14.70;;;6.20;99.90;;;;;;5035101;28;20880;-82
2020/12/09 15:58:49;;;;;;;19.20;13.73;;;6.20;99.90;;;;;;5017284;28;21003;-82
2020/12/09 16:01:15;;;;;;;24.27;17.27;;;6.20;99.90;;;;;;5034218;28;20972;-82
2020/12/09 16:03:42;;;;;;;18.80;13.23;;;6.20;99.90;;;;;;5018085;28;20560;-82
2020/12/09 16:06:08;;;;;;;23.45;13.75;;;6.10;99.90;;;;;;5056975;28;20165;-82
2020/12/09 16:08:41;;;;;;;17.30;12.55;;;6.10;99.90;;;;;;5002421;28;20200;-79
2020/12/09 16:11:07;;;;;;;17.35;11.93;;;6.10;99.90;;;;;;5052069;28;20189;-79
2020/12/09 16:13:33;;;;;;;16.63;12.87;;;6.10;99.90;;;;;;5051607;28;20172;-80
2020/12/09 16:16:03;;;;;;;18.23;13.73;;;6.10;99.90;;;;;;5054565;28;20184;-79
2020/12/09 16:18:29;;;;;;;19.85;12.88;;;6.10;99.90;;;;;;5034029;28;20275;-79
2020/12/09 16:20:55;;;;;;;16.73;12.55;;;6.00;99.90;;;;;;5033411;28;20255;-79
2020/12/09 16:23:21;;;;;;;18.63;14.13;;;6.00;99.90;;;;;;5033975;28;20623;-79
2020/12/09 16:25:46;;;;;;;16.83;12.70;;;5.90;99.90;;;;;;5033853;28;20246;-79
2020/12/09 16:28:13;;;;;;;15.10;12.80;;;5.90;99.90;;;;;;5033557;28;20169;-79
2020/12/09 16:30:42;;;;;;;17.92;13.57;;;5.90;99.90;;;;;;5033023;28;20633;-79
2020/12/09 16:33:08;;;;;;;17.02;13.20;;;5.80;99.90;;;;;;5033883;28;20177;-78
2020/12/09 16:35:34;;;;;;;17.20;11.63;;;5.80;99.90;;;;;;5033652;28;20169;-79
2020/12/09 16:38:00;;;;;;;12.67;10.00;;;5.80;99.90;;;;;;5033441;28;20189;-79
2020/12/09 16:40:26;;;;;;;15.90;10.57;;;5.80;99.90;;;;;;5015764;28;21235;-79
2020/12/09 16:42:52;;;;;;;13.93;10.43;;;5.80;99.90;;;;;;5056918;28;21135;-79
2020/12/09 16:45:18;;;;;;;14.97;12.67;;;5.80;99.90;;;;;;5043823;28;20686;-78
2020/12/09 16:47:43;;;;;;;13.63;10.40;;;5.70;99.90;;;;;;5033533;28;20654;-78
2020/12/09 16:50:09;;;;;;;12.30;10.13;;;5.70;99.90;;;;;;5051000;28;20646;-79
2020/12/09 16:52:35;;;;;;;13.07;10.60;;;5.70;99.90;;;;;;5032911;28;20167;-79
2020/12/09 16:55:02;;;;;;;15.32;10.80;;;5.60;99.90;;;;;;5017161;28;20578;-79
2020/12/09 16:57:28;;;;;;;12.77;9.77;;;5.70;99.90;;;;;;5033314;28;20601;-79
2020/12/09 16:59:56;;;;;;;10.93;8.60;;;5.60;99.90;;;;;;5033387;28;20738;-79
2020/12/09 17:02:23;;;;;;;14.63;11.30;;;5.60;99.90;;;;;;5033072;28;20224;-79
2020/12/09 17:04:54;;;;;;;13.23;10.70;;;5.60;99.90;;;;;;5033200;28;20565;-80
2020/12/09 17:07:19;;;;;;;12.38;9.02;;;5.60;99.90;;;;;;5051686;28;20692;-79
2020/12/09 17:09:45;;;;;;;12.50;9.77;;;5.50;99.90;;;;;;5034463;28;20197;-79
2020/12/09 17:12:13;;;;;;;14.67;10.53;;;5.50;99.90;;;;;;5033911;28;20607;-79
2020/12/09 17:14:40;;;;;;;13.63;10.27;;;5.50;99.90;;;;;;5052088;28;20564;-79
2020/12/09 17:17:05;;;;;;;15.68;10.20;;;5.40;99.90;;;;;;5001380;28;20176;-79
2020/12/09 17:19:31;;;;;;;14.13;9.73;;;5.40;99.90;;;;;;5055367;28;20185;-79
2020/12/09 17:21:58;;;;;;;11.67;8.57;;;5.40;99.90;;;;;;5017500;28;20650;-79
2020/12/09 17:24:27;;;;;;;11.80;9.32;;;5.40;99.90;;;;;;5033276;28;21166;-79
2020/12/09 17:26:55;;;;;;;10.80;8.20;;;5.40;99.90;;;;;;5033897;28;20188;-79
2020/12/09 17:29:21;;;;;;;17.38;13.57;;;5.40;99.90;;;;;;5042204;28;20714;-79
2020/12/09 17:31:47;;;;;;;13.27;11.23;;;5.20;99.90;;;;;;5053303;28;20570;-79
2020/12/09 17:34:15;;;;;;;11.02;9.60;;;5.30;99.90;;;;;;5053526;28;20195;-79
2020/12/09 17:36:41;;;;;;;10.40;8.65;;;5.30;99.90;;;;;;5070403;28;20251;-78
2020/12/09 17:39:09;;;;;;;13.45;9.13;;;5.30;99.90;;;;;;5069904;28;20201;-78
2020/12/09 17:41:36;;;;;;;11.95;9.27;;;5.30;99.90;;;;;;5052653;28;20199;-79
2020/12/09 17:44:02;;;;;;;11.18;9.02;;;5.30;99.90;;;;;;5070584;28;20535;-78
2020/12/09 17:46:30;;;;;;;11.45;8.20;;;5.20;99.90;;;;;;5070419;28;20164;-79
2020/12/09 17:48:56;;;;;;;10.75;8.93;;;5.20;99.90;;;;;;5069908;28;20601;-79
2020/12/09 17:51:23;;;;;;;10.23;8.45;;;5.20;99.90;;;;;;5069830;28;20661;-79
2020/12/09 17:53:49;;;;;;;11.13;8.60;;;5.20;99.90;;;;;;5052329;28;20222;-79
2020/12/09 17:56:18;;;;;;;12.02;8.43;;;5.10;99.90;;;;;;5052683;28;20188;-79
2020/12/09 17:58:45;;;;;;;12.40;9.02;;;5.10;99.90;;;;;;5045187;28;20200;-79
2020/12/09 18:01:11;;;;;;;10.85;8.35;;;5.00;99.90;;;;;;5051847;28;20589;-78
2020/12/09 18:03:37;;;;;;;9.75;8.65;;;5.00;99.90;;;;;;5034501;28;20728;-78